Time;durP1;ratioP1;P1;durP2;ratioP2;P2;SDS_P1;SDS_P2;PMS_P1;PMS_P2;Temp;Humidity;BMP_temperature;BMP_pressure;BME280_temperature;BME280_humidity;BME280_pressure;Samples;Min_cycle;Max_cycle;Signal;HPM_P1;HPM_P2
2021/12/29 00:00:21;;;;;;;15.05;2.72;;;6.90;98.00;;;;;;5010638;28;20045;-75
2021/12/29 00:02:48;;;;;;;17.48;2.88;;;6.90;98.00;;;;;;5006735;28;20018;-74
2021/12/29 00:05:14;;;;;;;15.85;2.85;;;6.90;98.00;;;;;;5010475;28;20022;-75
2021/12/29 00:07:40;;;;;;;15.77;3.05;;;6.90;98.00;;;;;;5006290;28;20024;-75
2021/12/29 00:10:07;;;;;;;13.32;2.47;;;6.90;98.00;;;;;;5003515;28;20421;-76
2021/12/29 00:12:40;;;;;;;12.05;2.50;;;6.90;98.00;;;;;;5011191;28;20097;-76
2021/12/29 00:15:07;;;;;;;16.33;2.38;;;6.90;98.00;;;;;;5005411;28;20026;-76
2021/12/29 00:17:32;;;;;;;19.25;4.80;;;6.90;98.00;;;;;;5005110;28;20026;-76
2021/12/29 00:19:58;;;;;;;16.05;3.00;;;6.80;98.00;;;;;;5007519;28;20026;-74
2021/12/29 00:22:23;;;;;;;11.85;2.50;;;6.80;98.00;;;;;;5012259;28;20037;-76
2021/12/29 00:24:49;;;;;;;16.27;2.55;;;6.80;98.00;;;;;;5008373;28;20117;-75
2021/12/29 00:27:15;;;;;;;10.25;2.75;;;6.80;98.00;;;;;;5007703;28;20041;-77
2021/12/29 00:29:40;;;;;;;13.68;2.67;;;6.80;98.00;;;;;;5010295;28;20035;-75
2021/12/29 00:32:06;;;;;;;14.52;3.22;;;6.80;98.00;;;;;;5006369;28;20487;-74
2021/12/29 00:34:32;;;;;;;8.85;2.38;;;6.80;98.00;;;;;;5007798;28;20030;-76
2021/12/29 00:36:57;;;;;;;9.43;2.65;;;6.80;98.00;;;;;;5011307;28;20449;-76
2021/12/29 00:39:23;;;;;;;13.43;3.03;;;6.70;98.00;;;;;;5009980;28;20042;-76
2021/12/29 00:41:49;;;;;;;9.63;2.15;;;6.80;98.00;;;;;;5007932;28;20052;-76
2021/12/29 00:44:15;;;;;;;10.88;2.28;;;6.80;98.00;;;;;;5006806;28;20104;-75
2021/12/29 00:46:41;;;;;;;10.82;2.08;;;6.90;98.00;;;;;;5009854;28;20022;-75
2021/12/29 00:49:08;;;;;;;10.32;1.85;;;6.90;98.00;;;;;;5004038;28;20415;-75
2021/12/29 00:51:34;;;;;;;14.10;2.13;;;6.90;98.00;;;;;;5011537;28;20104;-74
2021/12/29 00:54:00;;;;;;;8.98;1.95;;;6.90;98.00;;;;;;5002630;28;20070;-77
2021/12/29 00:56:26;;;;;;;11.27;2.25;;;6.90;98.00;;;;;;5006546;28;20084;-75
2021/12/29 00:58:52;;;;;;;7.80;1.52;;;6.90;98.00;;;;;;5010752;28;20414;-75
2021/12/29 01:01:17;;;;;;;9.48;1.80;;;6.90;98.00;;;;;;5008820;28;20105;-75
2021/12/29 01:03:43;;;;;;;10.43;2.17;;;6.90;98.00;;;;;;5005615;28;20306;-75
2021/12/29 01:06:10;;;;;;;14.48;2.40;;;6.90;98.00;;;;;;5007831;28;20021;-76
2021/12/29 01:08:35;;;;;;;10.32;2.30;;;6.90;98.00;;;;;;5006076;28;20121;-76
2021/12/29 01:11:02;;;;;;;9.63;1.90;;;6.90;98.00;;;;;;5013226;28;20105;-75
2021/12/29 01:13:33;;;;;;;7.90;2.13;;;6.90;98.00;;;;;;5012936;28;20034;-76
2021/12/29 01:18:31;;;;;;;9.48;1.85;;;6.90;98.00;;;;;;5004086;28;20026;-76
2021/12/29 01:20:57;;;;;;;8.45;1.50;;;6.80;98.00;;;;;;4992620;28;20058;-76
2021/12/29 01:23:24;;;;;;;11.13;2.25;;;6.80;98.00;;;;;;4992926;28;20061;-77
2021/12/29 01:25:50;;;;;;;9.15;1.90;;;6.80;98.00;;;;;;4992781;28;20030;-75
2021/12/29 01:28:15;;;;;;;9.85;2.15;;;6.80;98.00;;;;;;4994614;28;20034;-75
2021/12/29 01:30:42;;;;;;;5.78;1.38;;;6.80;98.00;;;;;;5003507;28;20415;-76
2021/12/29 01:33:08;;;;;;;9.00;1.70;;;6.70;98.00;;;;;;5025851;28;20113;-75
2021/12/29 01:35:35;;;;;;;8.75;2.40;;;6.70;98.00;;;;;;4992117;28;20033;-75
2021/12/29 01:38:02;;;;;;;7.75;2.05;;;6.70;98.00;;;;;;4994868;28;20031;-75
2021/12/29 01:40:28;;;;;;;7.90;1.90;;;6.70;98.00;;;;;;4994588;28;20510;-76
2021/12/29 01:42:55;;;;;;;5.82;1.80;;;6.70;98.00;;;;;;5023447;28;20387;-75
2021/12/29 01:45:21;;;;;;;7.97;1.80;;;6.70;98.00;;;;;;4995364;28;20030;-75
2021/12/29 01:47:48;;;;;;;9.10;2.00;;;6.70;98.00;;;;;;4997371;28;20052;-75
2021/12/29 01:50:15;;;;;;;11.60;1.90;;;6.70;98.00;;;;;;4993812;28;20041;-75
2021/12/29 01:52:42;;;;;;;9.27;2.67;;;6.70;98.00;;;;;;4994836;28;20022;-75
2021/12/29 01:55:14;;;;;;;8.45;1.58;;;6.70;98.00;;;;;;4991738;28;20114;-76
2021/12/29 01:57:40;;;;;;;7.65;1.75;;;6.70;98.00;;;;;;4992381;28;20544;-75
2021/12/29 02:00:11;;;;;;;10.32;1.98;;;6.70;98.00;;;;;;4994905;28;20034;-75
2021/12/29 02:02:37;;;;;;;7.40;2.03;;;6.70;98.00;;;;;;4992216;28;20030;-75
2021/12/29 02:05:03;;;;;;;10.60;2.47;;;6.70;98.00;;;;;;4995793;28;20437;-76
2021/12/29 02:07:28;;;;;;;11.73;2.53;;;6.70;98.00;;;;;;4994790;28;20089;-76
2021/12/29 02:09:54;;;;;;;5.68;1.50;;;6.70;98.00;;;;;;4996931;28;20038;-76
2021/12/29 02:12:20;;;;;;;9.80;2.40;;;6.60;98.00;;;;;;4996108;28;20342;-75
2021/12/29 02:14:46;;;;;;;5.95;1.52;;;6.60;98.00;;;;;;5018912;28;20081;-75
2021/12/29 02:17:13;;;;;;;8.30;2.10;;;6.60;98.00;;;;;;4988211;28;20038;-75
2021/12/29 02:19:45;;;;;;;14.95;2.80;;;6.50;98.00;;;;;;4996753;28;20027;-76
2021/12/29 02:22:38;;;;;;;5.80;1.77;;;6.50;98.00;;;;;;4991745;28;20023;-76
2021/12/29 02:25:35;;;;;;;8.90;1.90;;;6.50;98.00;;;;;;4997017;28;20393;-76
2021/12/29 02:27:55;;;;;;;8.38;1.50;;;6.50;98.00;;;;;;4993430;28;20348;-77
2021/12/29 02:30:23;;;;;;;8.60;2.15;;;6.50;98.00;;;;;;4994907;28;20030;-77
2021/12/29 02:32:49;;;;;;;11.13;1.98;;;6.50;98.00;;;;;;4992964;28;20018;-75
2021/12/29 02:35:18;;;;;;;7.50;1.73;;;6.50;98.00;;;;;;4995394;28;20019;-77
2021/12/29 02:37:44;;;;;;;8.90;2.38;;;6.50;98.00;;;;;;5008272;28;20065;-76
2021/12/29 02:40:11;;;;;;;7.28;1.55;;;6.50;98.00;;;;;;4991975;28;20073;-76
2021/12/29 02:42:41;;;;;;;7.40;1.65;;;6.50;98.00;;;;;;4990378;28;20018;-75
2021/12/29 02:45:10;;;;;;;8.23;1.90;;;6.50;98.00;;;;;;4990842;28;20022;-74
2021/12/29 02:47:36;;;;;;;7.38;1.55;;;6.50;98.00;;;;;;4993668;28;20026;-75
2021/12/29 02:50:02;;;;;;;7.85;2.15;;;6.50;98.00;;;;;;4991863;28;20033;-76
2021/12/29 02:52:27;;;;;;;10.00;1.85;;;6.50;98.00;;;;;;4991205;28;20038;-76
2021/12/29 02:54:53;;;;;;;7.70;1.60;;;6.50;98.00;;;;;;5008910;28;20036;-76
2021/12/29 02:57:19;;;;;;;6.93;2.00;;;6.50;98.00;;;;;;4995674;28;20042;-75
2021/12/29 02:59:45;;;;;;;5.72;2.00;;;6.60;98.00;;;;;;4991694;28;20370;-75
2021/12/29 03:02:11;;;;;;;8.27;1.58;;;6.60;98.00;;;;;;4993652;28;20434;-75
2021/12/29 03:04:36;;;;;;;11.45;2.00;;;6.60;98.00;;;;;;4994476;28;20033;-75
2021/12/29 03:07:02;;;;;;;6.10;1.42;;;6.60;98.00;;;;;;4992871;28;20029;-75
2021/12/29 03:09:28;;;;;;;9.25;1.88;;;6.60;98.00;;;;;;4990342;28;20382;-75
2021/12/29 03:11:54;;;;;;;6.90;2.13;;;6.60;98.00;;;;;;4994990;28;20181;-75
2021/12/29 03:14:20;;;;;;;11.50;1.70;;;6.60;98.00;;;;;;5001009;28;20030;-75
2021/12/29 03:16:46;;;;;;;6.95;1.58;;;6.60;98.00;;;;;;4988075;28;20057;-76
2021/12/29 03:19:12;;;;;;;7.13;1.77;;;6.60;98.00;;;;;;4990970;28;20121;-76
2021/12/29 03:21:39;;;;;;;9.30;1.90;;;6.60;98.00;;;;;;4991807;28;20097;-75
2021/12/29 03:24:06;;;;;;;8.80;1.90;;;6.60;98.00;;;;;;4996966;28;20100;-77
2021/12/29 03:26:32;;;;;;;6.70;1.48;;;6.60;98.00;;;;;;4994135;28;20038;-76
2021/12/29 03:28:58;;;;;;;9.38;2.97;;;6.60;98.00;;;;;;4993681;28;20038;-75
2021/12/29 03:31:25;;;;;;;5.50;1.38;;;6.60;98.00;;;;;;4992019;28;20108;-75
2021/12/29 03:33:50;;;;;;;7.80;1.50;;;6.60;98.00;;;;;;4991033;28;20038;-76
2021/12/29 03:36:18;;;;;;;7.78;1.65;;;6.60;98.00;;;;;;4991872;28;20028;-76
2021/12/29 03:38:45;;;;;;;4.70;1.10;;;6.70;98.00;;;;;;4991742;28;20047;-76
2021/12/29 03:41:14;;;;;;;6.25;1.38;;;6.70;98.00;;;;;;5011935;28;20027;-76
2021/12/29 03:43:42;;;;;;;7.72;1.75;;;6.70;98.00;;;;;;4993592;28;20022;-76
2021/12/29 03:46:09;;;;;;;5.80;1.55;;;6.70;98.00;;;;;;4989419;28;20035;-76
2021/12/29 03:48:38;;;;;;;7.72;1.52;;;6.70;98.00;;;;;;4991116;28;20391;-75
2021/12/29 03:51:05;;;;;;;6.68;1.67;;;6.80;98.00;;;;;;4991179;28;20030;-76
2021/12/29 03:53:33;;;;;;;8.70;1.70;;;6.80;98.00;;;;;;4992983;28;20034;-76
2021/12/29 03:55:59;;;;;;;8.00;1.58;;;6.80;98.00;;;;;;5016577;28;20035;-76
2021/12/29 03:58:27;;;;;;;7.07;1.60;;;6.80;98.00;;;;;;4993842;28;20037;-75
2021/12/29 04:01:04;;;;;;;7.43;1.67;;;6.80;98.00;;;;;;4989181;28;20035;-76
2021/12/29 04:03:30;;;;;;;7.20;1.75;;;6.80;98.00;;;;;;4992944;28;20454;-75
2021/12/29 04:05:56;;;;;;;4.53;1.50;;;6.90;98.00;;;;;;4992609;28;20026;-76
2021/12/29 04:08:22;;;;;;;5.38;1.48;;;6.90;98.00;;;;;;5006432;28;20430;-75
2021/12/29 04:10:48;;;;;;;4.60;1.38;;;7.00;98.00;;;;;;4990163;28;20061;-75
2021/12/29 04:13:14;;;;;;;7.00;1.80;;;7.00;98.00;;;;;;4992995;28;20041;-76
2021/12/29 04:15:40;;;;;;;9.93;1.67;;;7.00;98.00;;;;;;4991473;28;20035;-76
2021/12/29 04:18:15;;;;;;;7.07;1.33;;;7.00;98.00;;;;;;4985608;28;20430;-77
2021/12/29 04:21:02;;;;;;;3.65;1.10;;;6.90;98.00;;;;;;4989898;28;20047;-75
2021/12/29 04:23:31;;;;;;;6.20;1.40;;;6.90;98.00;;;;;;4997112;28;20376;-75
2021/12/29 04:25:58;;;;;;;7.53;1.40;;;7.00;98.00;;;;;;4993207;28;20475;-76
2021/12/29 04:28:26;;;;;;;9.07;2.25;;;7.00;98.00;;;;;;4992235;28;20049;-75
2021/12/29 04:30:57;;;;;;;4.32;1.35;;;7.00;98.00;;;;;;4992541;28;20076;-75
2021/12/29 04:33:24;;;;;;;5.07;1.50;;;7.00;98.00;;;;;;5019523;28;20035;-75
2021/12/29 04:35:50;;;;;;;5.68;1.23;;;7.00;98.00;;;;;;4990943;28;20475;-77
2021/12/29 04:38:16;;;;;;;7.03;1.85;;;7.00;98.00;;;;;;4990177;28;20339;-76
2021/12/29 04:40:42;;;;;;;4.25;1.30;;;7.00;98.00;;;;;;4988685;28;20034;-76
2021/12/29 04:43:08;;;;;;;6.05;1.40;;;6.90;98.00;;;;;;4990455;28;20027;-76
2021/12/29 04:45:35;;;;;;;6.75;1.20;;;6.90;98.00;;;;;;4992559;28;20347;-75
2021/12/29 04:48:01;;;;;;;4.68;1.38;;;6.80;98.00;;;;;;5004064;28;20035;-74
2021/12/29 04:50:30;;;;;;;4.50;1.80;;;6.80;98.00;;;;;;4993037;28;20550;-75
2021/12/29 04:53:00;;;;;;;5.80;1.52;;;6.70;98.00;;;;;;4991298;28;20033;-76
2021/12/29 04:55:28;;;;;;;4.35;1.40;;;6.60;98.00;;;;;;4991368;28;20437;-76
2021/12/29 04:57:56;;;;;;;4.78;1.63;;;6.60;98.00;;;;;;4996472;28;20030;-75
2021/12/29 05:00:24;;;;;;;8.70;2.63;;;6.60;98.00;;;;;;5020958;28;20023;-75
2021/12/29 05:02:50;;;;;;;4.88;1.25;;;6.50;98.00;;;;;;4995633;28;20323;-76
2021/12/29 05:10:44;;;;;;;4.75;1.88;;;6.40;98.00;;;;;;4996137;28;20079;-75
2021/12/29 05:13:09;;;;;;;5.72;1.27;;;6.40;97.80;;;;;;4989396;28;20447;-75
2021/12/29 05:15:35;;;;;;;3.35;1.17;;;6.40;98.00;;;;;;4993997;28;20026;-75
2021/12/29 05:18:01;;;;;;;4.95;1.42;;;6.40;98.00;;;;;;4984558;28;20058;-76
2021/12/29 05:20:28;;;;;;;8.25;1.30;;;6.40;97.90;;;;;;4986227;28;20023;-76
2021/12/29 05:22:55;;;;;;;5.20;1.10;;;6.40;98.00;;;;;;4992403;28;20027;-76
2021/12/29 05:25:21;;;;;;;4.95;1.20;;;6.50;98.00;;;;;;4990913;28;20093;-77
2021/12/29 05:27:47;;;;;;;8.05;1.30;;;6.40;97.80;;;;;;4995941;28;20022;-77
2021/12/29 05:30:13;;;;;;;5.55;1.50;;;6.50;98.00;;;;;;4988467;28;20026;-76
2021/12/29 05:32:39;;;;;;;8.48;2.03;;;6.40;98.00;;;;;;4990938;28;20115;-76
2021/12/29 05:35:05;;;;;;;4.97;1.30;;;6.50;98.00;;;;;;4993061;28;20074;-76
2021/12/29 05:37:31;;;;;;;10.25;1.20;;;6.50;98.00;;;;;;4990497;28;20031;-76
2021/12/29 05:39:57;;;;;;;5.72;1.63;;;6.50;98.00;;;;;;4995318;28;20087;-76
2021/12/29 05:42:22;;;;;;;3.17;1.27;;;6.60;98.00;;;;;;4992679;28;20027;-76
2021/12/29 05:44:48;;;;;;;5.07;1.40;;;6.60;98.00;;;;;;4991547;28;20054;-76
2021/12/29 05:47:14;;;;;;;6.70;1.48;;;6.60;98.00;;;;;;4970399;28;20035;-76
2021/12/29 05:49:40;;;;;;;4.78;1.67;;;6.60;98.00;;;;;;4973391;28;20529;-76
2021/12/29 05:52:06;;;;;;;4.60;1.42;;;6.60;98.00;;;;;;4977750;28;20909;-76
2021/12/29 05:54:32;;;;;;;5.00;1.50;;;6.70;98.00;;;;;;4984531;28;20063;-74
2021/12/29 05:56:58;;;;;;;5.50;1.40;;;6.70;98.00;;;;;;4991305;28;20050;-76
2021/12/29 05:59:24;;;;;;;4.30;1.10;;;6.70;98.00;;;;;;4999987;28;20084;-76
2021/12/29 06:01:50;;;;;;;4.93;1.08;;;6.80;98.00;;;;;;4993820;28;20023;-76
2021/12/29 06:04:16;;;;;;;4.38;1.10;;;6.80;98.00;;;;;;4996912;28;20033;-76
2021/12/29 06:06:42;;;;;;;5.47;1.17;;;6.80;98.00;;;;;;4996620;28;20022;-76
2021/12/29 06:09:08;;;;;;;5.07;1.20;;;6.70;98.00;;;;;;5000938;28;20030;-75
2021/12/29 06:11:34;;;;;;;3.60;1.27;;;6.70;98.00;;;;;;4997688;28;20447;-75
2021/12/29 06:13:59;;;;;;;3.22;1.10;;;6.70;98.00;;;;;;5002317;28;20082;-75
2021/12/29 06:16:27;;;;;;;3.85;0.95;;;6.70;98.00;;;;;;5023166;28;20081;-76
2021/12/29 06:18:53;;;;;;;2.95;1.20;;;6.70;98.00;;;;;;5023755;28;20085;-76
2021/12/29 06:21:19;;;;;;;5.18;1.20;;;6.70;98.00;;;;;;4998480;28;20034;-76
2021/12/29 06:23:46;;;;;;;8.63;1.55;;;6.80;98.00;;;;;;5009754;28;20315;-76
2021/12/29 06:26:13;;;;;;;4.57;1.40;;;6.70;98.00;;;;;;5001583;28;20379;-76
2021/12/29 06:28:39;;;;;;;7.00;1.80;;;6.60;98.00;;;;;;5000227;28;20412;-76
2021/12/29 06:31:05;;;;;;;3.75;0.98;;;6.50;98.00;;;;;;4998018;28;20022;-76
2021/12/29 06:33:31;;;;;;;5.05;1.45;;;6.50;98.00;;;;;;4998704;28;20038;-76
2021/12/29 06:35:56;;;;;;;3.92;1.30;;;6.60;98.00;;;;;;5005956;28;20112;-76
2021/12/29 06:38:22;;;;;;;3.92;1.23;;;6.60;98.00;;;;;;5002826;28;20335;-76
2021/12/29 06:40:48;;;;;;;3.30;1.00;;;6.60;98.00;;;;;;4998113;28;20031;-75
2021/12/29 06:43:14;;;;;;;4.53;1.08;;;6.60;98.00;;;;;;4999523;28;20378;-76
2021/12/29 06:45:39;;;;;;;4.75;1.23;;;6.50;98.00;;;;;;4998722;28;20026;-76
2021/12/29 06:48:05;;;;;;;4.25;1.77;;;6.50;98.00;;;;;;5001501;28;20092;-76
2021/12/29 06:50:32;;;;;;;6.35;1.67;;;6.50;98.00;;;;;;5005834;28;20355;-76
2021/12/29 06:52:57;;;;;;;4.97;1.30;;;6.50;98.00;;;;;;4996458;28;20046;-76
2021/12/29 06:55:23;;;;;;;3.40;1.15;;;6.50;98.00;;;;;;4996211;28;20030;-75
2021/12/29 06:57:49;;;;;;;7.90;2.83;;;6.60;98.00;;;;;;5004869;28;20033;-76
2021/12/29 07:00:15;;;;;;;7.35;1.50;;;6.60;98.00;;;;;;5013357;28;20034;-75
2021/12/29 07:02:41;;;;;;;7.10;1.42;;;6.60;98.00;;;;;;4997758;28;20037;-76
2021/12/29 07:05:07;;;;;;;5.90;1.75;;;6.70;98.00;;;;;;4997013;28;20491;-76
2021/12/29 07:07:36;;;;;;;5.03;1.35;;;6.80;98.00;;;;;;4994630;28;20134;-75
2021/12/29 07:10:04;;;;;;;6.85;1.45;;;6.80;98.00;;;;;;4996978;28;20058;-76
2021/12/29 07:12:29;;;;;;;6.40;1.77;;;6.80;98.00;;;;;;4996947;28;20035;-76
2021/12/29 07:14:55;;;;;;;3.72;1.58;;;6.80;98.00;;;;;;4998324;28;20026;-76
2021/12/29 07:17:21;;;;;;;4.18;1.15;;;6.80;98.00;;;;;;4998237;28;20088;-77
2021/12/29 07:19:46;;;;;;;7.90;1.40;;;6.90;98.00;;;;;;4997554;28;20089;-78
2021/12/29 07:22:12;;;;;;;4.20;1.50;;;7.00;98.00;;;;;;4996588;28;20451;-76
2021/12/29 07:24:38;;;;;;;6.03;2.17;;;7.00;98.00;;;;;;4996221;28;20053;-75
2021/12/29 07:27:04;;;;;;;5.82;2.08;;;7.00;98.00;;;;;;4996923;28;20438;-76
2021/12/29 07:29:30;;;;;;;5.38;1.30;;;7.00;98.00;;;;;;4996632;28;20037;-76
2021/12/29 07:31:58;;;;;;;3.25;1.10;;;7.00;98.00;;;;;;4998065;28;20023;-76
2021/12/29 07:34:25;;;;;;;4.63;1.30;;;7.10;98.00;;;;;;4997856;28;20097;-76
2021/12/29 07:36:52;;;;;;;4.03;1.50;;;7.10;98.00;;;;;;4992899;28;20031;-76
2021/12/29 07:39:18;;;;;;;5.28;1.30;;;7.00;98.00;;;;;;4994872;28;20057;-75
2021/12/29 07:41:46;;;;;;;2.92;1.27;;;7.00;98.00;;;;;;4997494;28;20027;-75
2021/12/29 07:44:13;;;;;;;4.68;1.55;;;7.00;98.00;;;;;;5012855;28;20030;-76
2021/12/29 07:46:41;;;;;;;6.13;1.45;;;7.00;98.00;;;;;;5012912;28;20125;-75
2021/12/29 07:49:07;;;;;;;10.77;2.97;;;7.10;98.00;;;;;;4997565;28;20060;-76
2021/12/29 07:51:32;;;;;;;8.45;3.92;;;7.00;98.00;;;;;;4996798;28;20058;-75
2021/12/29 07:53:59;;;;;;;4.63;1.60;;;7.00;98.00;;;;;;4995450;28;20033;-76
2021/12/29 07:56:26;;;;;;;4.72;1.65;;;7.00;98.00;;;;;;4997101;28;20030;-76
2021/12/29 07:58:52;;;;;;;3.45;1.20;;;7.10;98.00;;;;;;4997317;28;20022;-76
2021/12/29 08:01:17;;;;;;;4.93;1.50;;;7.10;98.00;;;;;;4996837;28;20031;-75
2021/12/29 08:03:44;;;;;;;5.68;1.35;;;7.20;98.00;;;;;;4997393;28;20063;-75
2021/12/29 08:06:09;;;;;;;9.00;1.77;;;7.30;98.00;;;;;;4996298;28;20034;-75
2021/12/29 08:08:35;;;;;;;4.40;1.20;;;7.30;98.00;;;;;;5011291;28;20085;-75
2021/12/29 08:11:01;;;;;;;6.43;1.45;;;7.40;98.00;;;;;;4996567;28;20101;-75
2021/12/29 08:13:26;;;;;;;5.20;1.98;;;7.40;98.00;;;;;;4995826;28;20091;-77
2021/12/29 08:15:52;;;;;;;4.00;1.17;;;7.40;98.00;;;;;;4996808;28;20026;-76
2021/12/29 08:18:17;;;;;;;3.38;1.60;;;7.50;98.00;;;;;;5028153;28;20424;-75
2021/12/29 08:20:43;;;;;;;5.10;1.48;;;7.50;98.00;;;;;;4996072;28;20157;-76
2021/12/29 08:23:10;;;;;;;10.95;3.83;;;7.40;98.00;;;;;;4995448;28;20125;-76
2021/12/29 08:25:37;;;;;;;9.25;2.05;;;7.40;98.00;;;;;;4997209;28;20026;-79
2021/12/29 08:28:03;;;;;;;5.32;1.65;;;7.40;98.00;;;;;;4996562;28;20022;-76
2021/12/29 08:30:29;;;;;;;4.80;2.00;;;7.40;98.00;;;;;;4996977;28;20022;-76
2021/12/29 08:32:55;;;;;;;5.78;2.35;;;7.40;98.00;;;;;;4996739;28;20081;-75
2021/12/29 08:35:21;;;;;;;5.28;1.58;;;7.30;98.00;;;;;;4996925;28;20332;-77
2021/12/29 08:37:48;;;;;;;6.60;3.33;;;7.40;98.00;;;;;;4993491;28;20375;-76
2021/12/29 08:40:16;;;;;;;5.20;1.90;;;7.40;98.00;;;;;;4977125;28;20093;-76
2021/12/29 08:42:41;;;;;;;4.60;1.63;;;7.50;98.00;;;;;;4994611;28;20030;-76
2021/12/29 08:45:11;;;;;;;11.45;4.90;;;7.60;98.00;;;;;;4996570;28;20505;-76
2021/12/29 08:47:36;;;;;;;4.47;1.70;;;7.70;98.00;;;;;;4994100;28;20056;-76
2021/12/29 08:50:05;;;;;;;5.32;1.75;;;7.80;98.00;;;;;;4995145;28;20415;-76
2021/12/29 08:52:30;;;;;;;10.73;3.90;;;7.80;98.00;;;;;;4993950;28;20026;-76
2021/12/29 08:54:59;;;;;;;12.75;5.65;;;7.70;98.00;;;;;;4996150;28;20471;-76
2021/12/29 08:57:24;;;;;;;9.43;4.20;;;7.70;98.00;;;;;;4995506;28;20026;-75
2021/12/29 08:59:50;;;;;;;10.20;4.20;;;7.70;98.00;;;;;;4995347;28;20089;-75
2021/12/29 09:02:16;;;;;;;6.13;2.53;;;7.80;98.00;;;;;;4996132;28;20031;-75
2021/12/29 09:04:41;;;;;;;7.10;2.63;;;7.80;98.00;;;;;;4996111;28;20054;-75
2021/12/29 09:07:08;;;;;;;5.43;1.63;;;7.80;98.00;;;;;;4995079;28;20486;-76
2021/12/29 09:09:34;;;;;;;5.05;1.60;;;7.80;98.00;;;;;;4996222;28;20030;-76
2021/12/29 09:11:59;;;;;;;5.45;1.60;;;7.80;98.00;;;;;;4996119;28;20092;-76
2021/12/29 09:14:25;;;;;;;3.00;1.30;;;7.90;98.00;;;;;;4996245;28;20037;-76
2021/12/29 09:16:51;;;;;;;7.38;2.28;;;7.90;98.00;;;;;;4996023;28;20033;-76
2021/12/29 09:19:16;;;;;;;7.85;2.47;;;8.00;98.00;;;;;;5016244;28;20168;-76
2021/12/29 09:21:44;;;;;;;6.40;2.90;;;8.10;98.00;;;;;;4995883;28;20109;-76
2021/12/29 09:24:11;;;;;;;9.80;4.50;;;8.00;98.00;;;;;;4994344;28;20026;-76
2021/12/29 09:26:38;;;;;;;7.82;2.40;;;8.00;98.00;;;;;;4995819;28;20293;-76
2021/12/29 09:29:05;;;;;;;8.02;2.50;;;7.90;98.00;;;;;;4994182;28;20030;-76
2021/12/29 09:31:30;;;;;;;7.88;2.95;;;8.00;98.00;;;;;;4998068;28;20133;-76
2021/12/29 09:33:56;;;;;;;15.32;5.93;;;8.10;98.00;;;;;;4998860;28;20401;-76
2021/12/29 09:36:23;;;;;;;5.50;2.00;;;8.00;98.00;;;;;;4991469;28;20034;-76
2021/12/29 09:38:49;;;;;;;16.83;6.90;;;8.00;98.00;;;;;;4978397;28;20041;-78
2021/12/29 09:41:18;;;;;;;12.05;5.03;;;8.00;98.00;;;;;;4987491;28;20408;-77
2021/12/29 09:43:45;;;;;;;9.38;3.70;;;8.10;98.00;;;;;;4998286;28;20034;-76
2021/12/29 09:46:12;;;;;;;4.30;1.50;;;8.00;98.00;;;;;;4999983;28;20030;-76
2021/12/29 09:48:38;;;;;;;6.47;1.70;;;8.10;98.00;;;;;;4999007;28;20022;-76
2021/12/29 09:51:06;;;;;;;5.00;2.35;;;8.10;98.00;;;;;;4999534;28;20312;-76
2021/12/29 09:53:32;;;;;;;6.45;1.85;;;8.10;98.00;;;;;;4997484;28;20023;-76
2021/12/29 09:55:58;;;;;;;7.20;1.70;;;8.10;98.00;;;;;;4998520;28;20041;-77
2021/12/29 09:58:24;;;;;;;6.32;2.25;;;8.10;98.00;;;;;;4999830;28;20030;-76
2021/12/29 10:00:56;;;;;;;4.15;1.92;;;8.00;98.00;;;;;;4999692;28;20423;-76
2021/12/29 10:03:25;;;;;;;9.73;4.25;;;8.10;98.00;;;;;;4998641;28;20037;-76
2021/12/29 10:05:53;;;;;;;5.75;1.85;;;8.20;98.00;;;;;;4999440;28;20022;-77
2021/12/29 10:08:25;;;;;;;5.65;2.22;;;8.30;98.00;;;;;;4998427;28;20033;-78
2021/12/29 10:10:53;;;;;;;5.53;2.40;;;8.30;98.00;;;;;;4998320;28;20333;-77
2021/12/29 10:13:19;;;;;;;8.65;2.05;;;8.30;98.00;;;;;;4998161;28;20026;-76
2021/12/29 10:15:54;;;;;;;6.45;2.30;;;8.40;98.00;;;;;;4999273;28;20033;-77
2021/12/29 10:18:26;;;;;;;7.15;3.30;;;8.40;98.00;;;;;;4999447;28;20518;-77
2021/12/29 10:20:57;;;;;;;6.97;1.85;;;8.60;98.00;;;;;;4998779;28;20019;-76
2021/12/29 10:23:27;;;;;;;6.57;1.80;;;8.60;98.00;;;;;;4998174;28;20029;-77
2021/12/29 10:25:54;;;;;;;9.05;2.28;;;8.80;98.00;;;;;;4998145;28;20125;-77
2021/12/29 10:28:26;;;;;;;6.03;2.30;;;8.80;98.00;;;;;;4999135;28;20096;-77
2021/12/29 10:31:37;;;;;;;7.45;2.38;;;8.80;98.00;;;;;;4998077;28;20323;-78
2021/12/29 10:34:07;;;;;;;7.28;2.53;;;8.90;98.00;;;;;;5016631;28;20026;-76
2021/12/29 10:36:46;;;;;;;5.60;2.35;;;8.80;98.00;;;;;;5000031;28;20095;-76
2021/12/29 10:39:20;;;;;;;7.38;2.63;;;8.70;98.00;;;;;;5004091;28;20046;-76
2021/12/29 10:41:52;;;;;;;8.40;1.98;;;8.80;98.00;;;;;;4997578;28;20026;-76
2021/12/29 10:44:49;;;;;;;4.88;1.80;;;8.80;97.90;;;;;;4998152;28;20439;-77
2021/12/29 10:47:25;;;;;;;7.72;2.42;;;8.80;97.70;;;;;;4998751;28;20073;-77
2021/12/29 10:50:03;;;;;;;6.07;1.73;;;8.80;97.90;;;;;;4997579;28;20121;-76
2021/12/29 10:52:38;;;;;;;7.30;1.90;;;8.80;97.30;;;;;;4997653;28;20408;-77
2021/12/29 10:55:32;;;;;;;10.05;2.40;;;8.90;97.40;;;;;;4998856;28;20084;-76
2021/12/29 10:58:14;;;;;;;12.73;2.20;;;8.90;97.30;;;;;;4997789;28;20077;-76
2021/12/29 11:00:47;;;;;;;6.85;1.80;;;8.90;97.70;;;;;;4997356;28;20030;-76
2021/12/29 11:03:21;;;;;;;9.23;2.22;;;8.90;97.30;;;;;;4998675;28;20033;-76
2021/12/29 11:05:54;;;;;;;9.20;2.08;;;8.80;97.20;;;;;;4996745;28;20027;-78
2021/12/29 11:08:21;;;;;;;10.63;2.50;;;8.80;97.50;;;;;;4996004;28;20053;-78
2021/12/29 11:10:47;;;;;;;11.27;2.00;;;8.80;97.70;;;;;;4997830;28;20026;-78
2021/12/29 11:13:26;;;;;;;7.07;1.60;;;8.80;97.80;;;;;;4997886;28;20109;-78
2021/12/29 11:15:53;;;;;;;5.78;2.10;;;8.80;97.30;;;;;;4996446;28;20027;-77
2021/12/29 11:18:19;;;;;;;7.45;2.00;;;8.80;97.40;;;;;;4997783;28;20424;-78
2021/12/29 11:20:45;;;;;;;5.85;1.65;;;8.80;97.30;;;;;;4998435;28;20149;-77
2021/12/29 11:23:20;;;;;;;7.95;2.05;;;8.80;97.30;;;;;;4996233;28;20014;-78
2021/12/29 11:25:47;;;;;;;8.52;2.05;;;8.80;97.60;;;;;;4998162;28;20546;-77
2021/12/29 11:28:26;;;;;;;8.80;2.42;;;8.90;97.20;;;;;;4996818;28;20186;-77
2021/12/29 11:30:54;;;;;;;9.57;2.30;;;8.80;97.10;;;;;;4996135;28;20037;-77
2021/12/29 11:33:21;;;;;;;12.43;2.50;;;8.80;97.00;;;;;;4998573;28;20026;-77
2021/12/29 11:35:50;;;;;;;8.82;2.30;;;8.90;96.90;;;;;;4998434;28;20034;-77
2021/12/29 11:38:18;;;;;;;8.40;2.10;;;8.90;97.10;;;;;;5024044;28;20137;-77
2021/12/29 11:40:50;;;;;;;9.15;2.00;;;8.90;96.70;;;;;;5027503;28;20133;-76
2021/12/29 11:43:17;;;;;;;7.45;2.22;;;8.90;96.70;;;;;;5017346;28;20092;-76
2021/12/29 11:45:46;;;;;;;8.27;2.10;;;9.00;96.90;;;;;;4996139;28;20058;-77
2021/12/29 11:48:12;;;;;;;7.03;2.08;;;9.00;96.50;;;;;;5004383;28;20057;-77
2021/12/29 11:50:45;;;;;;;13.57;2.45;;;9.00;96.90;;;;;;5009838;28;20022;-77
2021/12/29 11:53:29;;;;;;;8.00;2.25;;;9.00;96.40;;;;;;4997215;28;20415;-76
2021/12/29 11:56:14;;;;;;;7.60;1.90;;;9.00;96.40;;;;;;4991913;28;20054;-77
2021/12/29 11:58:42;;;;;;;10.65;2.22;;;9.00;96.50;;;;;;4994435;28;20030;-77
2021/12/29 12:01:13;;;;;;;6.88;2.10;;;9.00;96.40;;;;;;4995638;28;20018;-77
2021/12/29 12:03:50;;;;;;;9.20;2.47;;;9.00;96.40;;;;;;4995133;28;20015;-77
2021/12/29 12:06:24;;;;;;;8.55;2.25;;;9.00;96.50;;;;;;4992670;28;20080;-77
2021/12/29 12:09:07;;;;;;;9.63;2.13;;;8.90;96.50;;;;;;4993949;28;20033;-76
2021/12/29 12:11:35;;;;;;;11.13;2.83;;;8.90;96.40;;;;;;5002979;28;20112;-77
2021/12/29 12:14:04;;;;;;;6.60;2.03;;;8.90;96.60;;;;;;5012798;28;20080;-77
2021/12/29 12:16:30;;;;;;;8.80;2.08;;;8.90;96.50;;;;;;5009681;28;20034;-76
2021/12/29 12:18:58;;;;;;;8.48;2.72;;;8.90;96.40;;;;;;5002746;28;20034;-77
2021/12/29 12:21:40;;;;;;;9.13;2.05;;;9.00;96.90;;;;;;4998350;28;20583;-76
2021/12/29 12:24:19;;;;;;;6.82;2.03;;;9.10;96.00;;;;;;4998014;28;20128;-76
2021/12/29 12:27:16;;;;;;;9.98;1.90;;;9.10;96.00;;;;;;4990743;28;20105;-76
2021/12/29 12:29:44;;;;;;;14.52;2.90;;;9.10;95.80;;;;;;4998442;28;20097;-77
2021/12/29 12:32:18;;;;;;;9.05;2.20;;;9.00;96.10;;;;;;4991552;28;20027;-76
2021/12/29 12:34:59;;;;;;;7.38;2.42;;;8.90;96.60;;;;;;4994611;28;20085;-77
2021/12/29 12:37:41;;;;;;;6.95;2.00;;;9.00;96.70;;;;;;4994090;28;20426;-77
2021/12/29 12:40:24;;;;;;;5.18;1.42;;;9.10;96.00;;;;;;4993170;28;20338;-76
2021/12/29 12:43:17;;;;;;;9.57;1.70;;;9.20;95.30;;;;;;5002352;28;20034;-76
2021/12/29 12:45:50;;;;;;;5.80;1.60;;;9.30;94.60;;;;;;4995538;28;20026;-76
2021/12/29 12:48:28;;;;;;;6.78;1.73;;;9.40;94.50;;;;;;4988522;28;20113;-77
2021/12/29 12:50:55;;;;;;;6.57;1.50;;;9.40;94.70;;;;;;4997452;28;20022;-76
2021/12/29 12:53:37;;;;;;;6.32;1.40;;;9.30;94.60;;;;;;5022261;28;20113;-76
2021/12/29 12:56:12;;;;;;;6.32;1.70;;;9.30;95.10;;;;;;5003593;28;20092;-76
2021/12/29 12:58:42;;;;;;;5.32;1.70;;;9.00;95.90;;;;;;5014109;28;20513;-77
2021/12/29 13:01:15;;;;;;;10.50;2.28;;;8.70;97.40;;;;;;5015321;28;20054;-77
2021/12/29 13:03:41;;;;;;;4.67;1.47;;;8.50;98.00;;;;;;4993489;28;20109;-77
2021/12/29 13:06:22;;;;;;;7.05;2.50;;;8.30;98.00;;;;;;5010516;28;20022;-76
2021/12/29 13:08:50;;;;;;;6.28;2.03;;;8.30;98.00;;;;;;4986539;28;20030;-77